Time;durP1;ratioP1;P1;durP2;ratioP2;P2;SDS_P1;SDS_P2;PMS_P1;PMS_P2;Temp;Humidity;BMP_temperature;BMP_pressure;BME280_temperature;BME280_humidity;BME280_pressure;Samples;Min_cycle;Max_cycle;Signal;HPM_P1;HPM_P2
2021/08/18 00:00:41;;;;;;;0.30;0.30;;;;;;;;;;5083315;28;20425;-62
2021/08/18 00:03:08;;;;;;;0.30;0.30;;;;;;;;;;5094783;28;20568;-62
2021/08/18 00:05:34;;;;;;;0.40;0.40;;;;;;;;;;5094672;28;20380;-62
2021/08/18 00:08:01;;;;;;;0.40;0.40;;;;;;;;;;5094579;28;20313;-62
2021/08/18 00:10:28;;;;;;;0.30;0.30;;;;;;;;;;5094399;28;20410;-62
2021/08/18 00:12:54;;;;;;;0.30;0.30;;;;;;;;;;5094605;28;20418;-62
2021/08/18 00:15:21;;;;;;;0.30;0.30;;;;;;;;;;5094500;28;20530;-62
2021/08/18 00:17:47;;;;;;;0.40;0.40;;;;;;;;;;5092579;28;20440;-62
2021/08/18 00:20:13;;;;;;;0.30;0.30;;;;;;;;;;5094106;28;20397;-62
2021/08/18 00:22:40;;;;;;;0.40;0.40;;;;;;;;;;5094431;28;20883;-62
2021/08/18 00:25:06;;;;;;;0.40;0.40;;;;;;;;;;5094394;28;20406;-62
2021/08/18 00:27:32;;;;;;;0.30;0.30;;;;;;;;;;5094242;28;20218;-62
2021/08/18 00:29:58;;;;;;;0.30;0.30;;;;;;;;;;5094095;28;20511;-64
2021/08/18 00:32:24;;;;;;;0.30;0.30;;;;;;;;;;5094262;28;20284;-64
2021/08/18 00:34:50;;;;;;;0.30;0.30;;;;;;;;;;5091862;28;20434;-64
2021/08/18 00:37:16;;;;;;;0.30;0.30;;;;;;;;;;5093707;28;20642;-64
2021/08/18 00:39:42;;;;;;;0.30;0.30;;;;;;;;;;5093993;28;20412;-64
2021/08/18 00:42:08;;;;;;;0.40;0.40;;;;;;;;;;5094214;28;20409;-64
2021/08/18 00:44:35;;;;;;;0.40;0.40;;;;;;;;;;5094106;28;20447;-65
2021/08/18 00:47:01;;;;;;;0.40;0.40;;;;;;;;;;5093967;28;20888;-64
2021/08/18 00:49:28;;;;;;;0.30;0.30;;;;;;;;;;5093597;28;20418;-64
2021/08/18 00:51:54;;;;;;;0.30;0.30;;;;;;;;;;5092265;28;20575;-64
2021/08/18 00:54:20;;;;;;;0.40;0.40;;;;;;;;;;5093896;28;20177;-64
2021/08/18 00:56:47;;;;;;;0.30;0.30;;;;;;;;;;5093682;28;20469;-64
2021/08/18 00:59:13;;;;;;;0.30;0.30;;;;;;;;;;5092324;28;20412;-64
2021/08/18 01:01:40;;;;;;;0.40;0.40;;;;;;;;;;5093773;28;20403;-64
2021/08/18 01:04:06;;;;;;;0.30;0.30;;;;;;;;;;5093630;28;20442;-64
2021/08/18 01:06:39;;;;;;;0.30;0.30;;;;;;;;;;5093560;28;20202;-64
2021/08/18 01:09:05;;;;;;;0.40;0.40;;;;;;;;;;5091914;28;20790;-64
2021/08/18 01:11:34;;;;;;;0.30;0.30;;;;;;;;;;5093560;28;20173;-64
2021/08/18 01:14:00;;;;;;;0.30;0.30;;;;;;;;;;5093500;28;20401;-64
2021/08/18 01:16:26;;;;;;;0.30;0.30;;;;;;;;;;5093204;28;20509;-64
2021/08/18 01:18:52;;;;;;;0.40;0.40;;;;;;;;;;5093212;28;20881;-64
2021/08/18 01:21:18;;;;;;;0.33;0.33;;;;;;;;;;5092985;28;20483;-64
2021/08/18 01:23:45;;;;;;;0.30;0.30;;;;;;;;;;5093258;28;20449;-64
2021/08/18 01:26:11;;;;;;;0.30;0.30;;;;;;;;;;5073328;28;20967;-64
2021/08/18 01:28:37;;;;;;;0.37;0.37;;;;;;;;;;5078894;28;20412;-65
2021/08/18 01:31:03;;;;;;;0.30;0.30;;;;;;;;;;5093164;28;20472;-64
2021/08/18 01:33:29;;;;;;;0.40;0.40;;;;;;;;;;5093152;28;20402;-64
2021/08/18 01:35:55;;;;;;;0.40;0.40;;;;;;;;;;5092734;28;20821;-64
2021/08/18 01:38:21;;;;;;;0.30;0.30;;;;;;;;;;5074694;28;20420;-64
2021/08/18 01:40:51;;;;;;;0.30;0.30;;;;;;;;;;5092921;28;20408;-64
2021/08/18 01:43:17;;;;;;;0.40;0.40;;;;;;;;;;5084610;28;20934;-64
2021/08/18 01:45:44;;;;;;;0.40;0.40;;;;;;;;;;5091217;28;20427;-64
2021/08/18 01:48:20;;;;;;;0.40;0.40;;;;;;;;;;5092752;28;20411;-64
2021/08/18 01:50:47;;;;;;;0.40;0.40;;;;;;;;;;5092614;28;20446;-64
2021/08/18 01:53:25;;;;;;;0.30;0.30;;;;;;;;;;5092687;28;20388;-64
2021/08/18 01:55:52;;;;;;;0.30;0.30;;;;;;;;;;5087315;28;20726;-64
2021/08/18 01:58:18;;;;;;;0.30;0.30;;;;;;;;;;5072064;28;20425;-64
2021/08/18 02:00:44;;;;;;;0.30;0.30;;;;;;;;;;5073460;28;20423;-64
2021/08/18 02:03:10;;;;;;;0.30;0.30;;;;;;;;;;5072288;28;20440;-64
2021/08/18 02:05:36;;;;;;;0.40;0.40;;;;;;;;;;5072232;28;20206;-64
2021/08/18 02:08:03;;;;;;;0.40;0.40;;;;;;;;;;5072119;28;20402;-64
2021/08/18 02:10:29;;;;;;;0.40;0.40;;;;;;;;;;5072734;28;20418;-64
2021/08/18 02:12:55;;;;;;;0.40;0.40;;;;;;;;;;5072090;28;20276;-64
2021/08/18 02:15:23;;;;;;;0.50;0.50;;;;;;;;;;5071961;28;20402;-64
2021/08/18 02:17:49;;;;;;;0.40;0.40;;;;;;;;;;5072039;28;20487;-64
2021/08/18 02:20:17;;;;;;;0.40;0.40;;;;;;;;;;5071679;28;20181;-64
2021/08/18 02:22:43;;;;;;;0.30;0.30;;;;;;;;;;5071996;28;20399;-64
2021/08/18 02:25:10;;;;;;;0.40;0.40;;;;;;;;;;5081359;28;20446;-64
2021/08/18 02:27:36;;;;;;;0.40;0.40;;;;;;;;;;5092045;28;20240;-64
2021/08/18 02:30:03;;;;;;;0.40;0.40;;;;;;;;;;5091848;28;20414;-64
2021/08/18 02:32:29;;;;;;;0.40;0.40;;;;;;;;;;5091977;28;20415;-64
2021/08/18 02:34:55;;;;;;;0.30;0.30;;;;;;;;;;5073874;28;20186;-64
2021/08/18 02:37:21;;;;;;;0.30;0.30;;;;;;;;;;5091755;28;20506;-64
2021/08/18 02:39:47;;;;;;;0.40;0.40;;;;;;;;;;5079813;28;20452;-64
2021/08/18 02:42:13;;;;;;;0.30;0.30;;;;;;;;;;5071707;28;20415;-64
2021/08/18 02:44:39;;;;;;;0.30;0.30;;;;;;;;;;5071607;28;20414;-64
2021/08/18 02:47:05;;;;;;;0.40;0.40;;;;;;;;;;5071514;28;20241;-64
2021/08/18 02:49:31;;;;;;;0.40;0.40;;;;;;;;;;5071391;28;20913;-64
2021/08/18 02:51:57;;;;;;;0.30;0.30;;;;;;;;;;5071542;28;20452;-64
2021/08/18 02:54:25;;;;;;;0.30;0.30;;;;;;;;;;5084499;28;20512;-62
2021/08/18 02:56:52;;;;;;;0.30;0.30;;;;;;;;;;5091063;28;20207;-62
2021/08/18 02:59:18;;;;;;;0.30;0.30;;;;;;;;;;5091350;28;20449;-62
2021/08/18 03:01:44;;;;;;;0.30;0.30;;;;;;;;;;5091492;28;20168;-62
2021/08/18 03:04:10;;;;;;;0.30;0.30;;;;;;;;;;5091670;28;20908;-64
2021/08/18 03:06:36;;;;;;;0.30;0.30;;;;;;;;;;5091553;28;20514;-64
2021/08/18 03:09:02;;;;;;;0.30;0.30;;;;;;;;;;5089665;28;20486;-64
2021/08/18 03:11:28;;;;;;;0.30;0.30;;;;;;;;;;5091557;28;20410;-64
2021/08/18 03:13:54;;;;;;;0.30;0.30;;;;;;;;;;5091511;28;20181;-64
2021/08/18 03:16:20;;;;;;;0.40;0.40;;;;;;;;;;5091403;28;20970;-64
2021/08/18 03:18:46;;;;;;;0.30;0.30;;;;;;;;;;5091341;28;20401;-64
2021/08/18 03:21:12;;;;;;;0.30;0.30;;;;;;;;;;5091471;28;20914;-64
2021/08/18 03:23:39;;;;;;;0.40;0.40;;;;;;;;;;5077099;28;20423;-64
2021/08/18 03:26:05;;;;;;;0.30;0.30;;;;;;;;;;5085787;28;20966;-64
2021/08/18 03:28:31;;;;;;;0.40;0.40;;;;;;;;;;5094353;28;20490;-64
2021/08/18 03:30:57;;;;;;;0.30;0.30;;;;;;;;;;5091285;28;20395;-64
2021/08/18 03:33:23;;;;;;;0.30;0.30;;;;;;;;;;5076879;28;20413;-64
2021/08/18 03:35:48;;;;;;;0.40;0.40;;;;;;;;;;5075024;28;20524;-64
2021/08/18 03:38:14;;;;;;;0.40;0.40;;;;;;;;;;5092620;28;20457;-65
2021/08/18 03:40:41;;;;;;;0.40;0.40;;;;;;;;;;5095230;28;20796;-64
2021/08/18 03:43:07;;;;;;;0.30;0.30;;;;;;;;;;5095273;28;21043;-64
2021/08/18 03:45:33;;;;;;;0.30;0.30;;;;;;;;;;5094962;28;20380;-64
2021/08/18 03:47:59;;;;;;;0.30;0.30;;;;;;;;;;5095292;28;20197;-64
2021/08/18 03:50:25;;;;;;;0.30;0.30;;;;;;;;;;5093759;28;20776;-64
2021/08/18 03:52:51;;;;;;;0.30;0.30;;;;;;;;;;5074875;28;20214;-64
2021/08/18 03:55:17;;;;;;;0.30;0.30;;;;;;;;;;5074880;28;20382;-64
2021/08/18 03:57:43;;;;;;;0.40;0.40;;;;;;;;;;5074544;28;20838;-64
2021/08/18 04:00:10;;;;;;;0.30;0.30;;;;;;;;;;5074364;28;20401;-64
2021/08/18 04:02:36;;;;;;;0.30;0.30;;;;;;;;;;5074646;28;20412;-64
2021/08/18 04:05:03;;;;;;;0.40;0.40;;;;;;;;;;5075961;28;20926;-64
2021/08/18 04:07:29;;;;;;;0.30;0.30;;;;;;;;;;5074412;28;20235;-64
2021/08/18 04:09:55;;;;;;;0.30;0.30;;;;;;;;;;5091576;28;20212;-64
2021/08/18 04:12:21;;;;;;;0.30;0.30;;;;;;;;;;5094700;28;20408;-64
2021/08/18 04:14:47;;;;;;;0.30;0.30;;;;;;;;;;5094589;28;20888;-64
2021/08/18 04:17:13;;;;;;;0.30;0.30;;;;;;;;;;5094520;28;20475;-64
2021/08/18 04:19:39;;;;;;;0.40;0.40;;;;;;;;;;5089223;28;20939;-64
2021/08/18 04:22:05;;;;;;;0.30;0.30;;;;;;;;;;5074484;28;20414;-62
2021/08/18 04:24:31;;;;;;;0.30;0.30;;;;;;;;;;5074188;28;20751;-62
2021/08/18 04:26:57;;;;;;;0.30;0.30;;;;;;;;;;5073918;28;20435;-62
2021/08/18 04:29:23;;;;;;;0.40;0.40;;;;;;;;;;5073812;28;20415;-62
2021/08/18 04:31:49;;;;;;;0.37;0.37;;;;;;;;;;5073905;28;20730;-62
2021/08/18 04:34:15;;;;;;;0.40;0.40;;;;;;;;;;5074808;28;20411;-62
2021/08/18 04:39:21;;;;;;;0.40;0.40;;;;;;;;;;5091729;28;20530;-65
2021/08/18 04:41:47;;;;;;;0.40;0.40;;;;;;;;;;5094146;28;20406;-64
2021/08/18 04:44:13;;;;;;;0.40;0.40;;;;;;;;;;5094229;28;20404;-64
2021/08/18 04:46:39;;;;;;;0.30;0.30;;;;;;;;;;5094323;28;20170;-64
2021/08/18 04:49:05;;;;;;;0.30;0.30;;;;;;;;;;5093803;28;20403;-64
2021/08/18 04:51:31;;;;;;;0.30;0.30;;;;;;;;;;5093974;28;20398;-65
2021/08/18 04:53:57;;;;;;;0.40;0.40;;;;;;;;;;5109746;28;20408;-64
2021/08/18 04:56:23;;;;;;;0.40;0.40;;;;;;;;;;5093910;28;20497;-63
2021/08/18 04:58:49;;;;;;;0.40;0.40;;;;;;;;;;5093671;28;20433;-64
2021/08/18 05:01:15;;;;;;;0.40;0.40;;;;;;;;;;5093822;28;20482;-64
2021/08/18 05:03:41;;;;;;;0.30;0.30;;;;;;;;;;5093781;28;20405;-65
2021/08/18 05:06:07;;;;;;;0.30;0.30;;;;;;;;;;5093679;28;20441;-65
2021/08/18 05:08:33;;;;;;;0.30;0.30;;;;;;;;;;5093004;28;20531;-65
2021/08/18 05:10:59;;;;;;;0.40;0.40;;;;;;;;;;5085151;28;20541;-64
2021/08/18 05:13:25;;;;;;;0.30;0.30;;;;;;;;;;5073227;28;20413;-65
2021/08/18 05:15:51;;;;;;;0.30;0.30;;;;;;;;;;5071522;28;20877;-65
2021/08/18 05:18:17;;;;;;;0.40;0.40;;;;;;;;;;5071917;28;20432;-64
2021/08/18 05:20:43;;;;;;;0.30;0.30;;;;;;;;;;5073052;28;20411;-63
2021/08/18 05:23:09;;;;;;;0.40;0.40;;;;;;;;;;5073207;28;20504;-65
2021/08/18 05:25:35;;;;;;;0.40;0.40;;;;;;;;;;5073024;28;20770;-65
2021/08/18 05:28:03;;;;;;;0.40;0.40;;;;;;;;;;5073006;28;20423;-64
2021/08/18 05:30:30;;;;;;;0.30;0.30;;;;;;;;;;5072852;28;20401;-65
2021/08/18 05:32:56;;;;;;;0.40;0.40;;;;;;;;;;5072898;28;20196;-64
2021/08/18 05:35:22;;;;;;;0.40;0.40;;;;;;;;;;5086093;28;20174;-64
2021/08/18 05:37:48;;;;;;;0.30;0.30;;;;;;;;;;5092746;28;20463;-64
2021/08/18 05:40:14;;;;;;;0.37;0.37;;;;;;;;;;5091124;28;20467;-65
2021/08/18 05:42:40;;;;;;;0.30;0.30;;;;;;;;;;5089714;28;20422;-64
2021/08/18 05:45:07;;;;;;;0.40;0.40;;;;;;;;;;5090649;28;20179;-64
2021/08/18 05:47:33;;;;;;;0.30;0.30;;;;;;;;;;5092279;28;20497;-65
2021/08/18 05:49:59;;;;;;;0.40;0.40;;;;;;;;;;5092903;28;20484;-65
2021/08/18 05:52:25;;;;;;;0.40;0.40;;;;;;;;;;5092505;28;20427;-65
2021/08/18 05:54:51;;;;;;;0.30;0.30;;;;;;;;;;5092427;28;20424;-65
2021/08/18 05:57:17;;;;;;;0.30;0.30;;;;;;;;;;5092168;28;20463;-65
2021/08/18 05:59:43;;;;;;;0.30;0.30;;;;;;;;;;5091704;28;20180;-65
2021/08/18 06:02:09;;;;;;;0.40;0.40;;;;;;;;;;5092549;28;20397;-65
2021/08/18 06:04:35;;;;;;;0.30;0.30;;;;;;;;;;5092509;28;20397;-65
2021/08/18 06:07:01;;;;;;;0.30;0.30;;;;;;;;;;5092220;28;20455;-65
2021/08/18 06:09:27;;;;;;;0.30;0.30;;;;;;;;;;5091059;28;20427;-65
2021/08/18 06:11:53;;;;;;;0.30;0.30;;;;;;;;;;5092957;28;20432;-65
2021/08/18 06:14:19;;;;;;;0.30;0.30;;;;;;;;;;5092000;28;20392;-65
2021/08/18 06:16:45;;;;;;;0.30;0.30;;;;;;;;;;5090622;28;20974;-65
2021/08/18 06:19:11;;;;;;;0.30;0.30;;;;;;;;;;5092193;28;20408;-64
2021/08/18 06:21:37;;;;;;;0.30;0.30;;;;;;;;;;5091788;28;20795;-65
2021/08/18 06:24:13;;;;;;;0.30;0.30;;;;;;;;;;5092240;28;20426;-65
2021/08/18 06:26:39;;;;;;;0.30;0.30;;;;;;;;;;5091794;28;20402;-65
2021/08/18 06:29:05;;;;;;;0.30;0.30;;;;;;;;;;5091890;28;20780;-65
2021/08/18 06:31:31;;;;;;;0.30;0.30;;;;;;;;;;5091350;28;20424;-64
2021/08/18 06:33:57;;;;;;;0.30;0.30;;;;;;;;;;5091721;28;20395;-65
2021/08/18 06:36:23;;;;;;;0.30;0.30;;;;;;;;;;5088391;28;20810;-63
2021/08/18 06:38:49;;;;;;;0.30;0.30;;;;;;;;;;5082236;28;20434;-65
2021/08/18 06:41:15;;;;;;;0.30;0.30;;;;;;;;;;5091579;28;20397;-64
2021/08/18 06:43:41;;;;;;;0.30;0.30;;;;;;;;;;5091767;28;20938;-64
2021/08/18 06:46:07;;;;;;;0.30;0.30;;;;;;;;;;5092431;28;20440;-65
2021/08/18 06:48:34;;;;;;;0.40;0.40;;;;;;;;;;5091429;28;20523;-65
2021/08/18 06:51:00;;;;;;;0.30;0.30;;;;;;;;;;5091953;28;20761;-65
2021/08/18 06:53:26;;;;;;;0.30;0.30;;;;;;;;;;5091418;28;20431;-65
2021/08/18 06:55:52;;;;;;;0.30;0.30;;;;;;;;;;5091059;28;20513;-64
2021/08/18 06:58:18;;;;;;;0.30;0.30;;;;;;;;;;5091389;28;20416;-64
2021/08/18 07:00:44;;;;;;;0.30;0.30;;;;;;;;;;5091159;28;20371;-62
2021/08/18 07:03:10;;;;;;;0.30;0.30;;;;;;;;;;5089208;28;20424;-64
2021/08/18 07:05:36;;;;;;;0.30;0.30;;;;;;;;;;5091382;28;20401;-64
2021/08/18 07:08:02;;;;;;;0.30;0.30;;;;;;;;;;5089753;28;20447;-64
2021/08/18 07:10:28;;;;;;;0.30;0.30;;;;;;;;;;5089787;28;20423;-64
2021/08/18 07:12:55;;;;;;;0.30;0.30;;;;;;;;;;5089161;28;20428;-65
2021/08/18 07:15:21;;;;;;;0.30;0.30;;;;;;;;;;5090786;28;20431;-64
2021/08/18 07:17:47;;;;;;;0.30;0.30;;;;;;;;;;5089606;28;20931;-65
2021/08/18 07:20:14;;;;;;;0.30;0.30;;;;;;;;;;5090335;28;20398;-64
2021/08/18 07:22:39;;;;;;;0.30;0.30;;;;;;;;;;5090844;28;20469;-64
2021/08/18 07:25:06;;;;;;;0.33;0.33;;;;;;;;;;5090604;28;20404;-64
2021/08/18 07:27:32;;;;;;;0.30;0.30;;;;;;;;;;5090851;28;20509;-65
2021/08/18 07:29:58;;;;;;;0.30;0.30;;;;;;;;;;5090407;28;20849;-65
2021/08/18 07:32:24;;;;;;;0.30;0.30;;;;;;;;;;5091201;28;20398;-62
2021/08/18 07:34:50;;;;;;;0.30;0.30;;;;;;;;;;5090691;28;20464;-63
2021/08/18 07:37:17;;;;;;;0.30;0.30;;;;;;;;;;5078147;28;21035;-65
2021/08/18 07:39:44;;;;;;;0.30;0.30;;;;;;;;;;5090552;28;20421;-64
2021/08/18 07:42:11;;;;;;;0.30;0.30;;;;;;;;;;5090131;28;20507;-65
2021/08/18 07:44:37;;;;;;;0.30;0.30;;;;;;;;;;5090673;28;20423;-64
2021/08/18 07:47:03;;;;;;;0.30;0.30;;;;;;;;;;5090573;28;20910;-64
2021/08/18 07:49:29;;;;;;;0.30;0.30;;;;;;;;;;5090665;28;20436;-65
2021/08/18 07:51:55;;;;;;;0.30;0.30;;;;;;;;;;5091151;28;20400;-65
2021/08/18 07:54:21;;;;;;;0.30;0.30;;;;;;;;;;5090890;28;20392;-64
2021/08/18 07:56:47;;;;;;;0.30;0.30;;;;;;;;;;5090704;28;20467;-64
2021/08/18 07:59:13;;;;;;;0.30;0.30;;;;;;;;;;5090113;28;20784;-65
2021/08/18 08:01:40;;;;;;;0.30;0.30;;;;;;;;;;5090737;28;20439;-64
2021/08/18 08:04:06;;;;;;;0.30;0.30;;;;;;;;;;5090918;28;20394;-64
2021/08/18 08:06:32;;;;;;;0.30;0.30;;;;;;;;;;5090839;28;20416;-64
2021/08/18 08:08:58;;;;;;;0.30;0.30;;;;;;;;;;5091862;28;20818;-64
2021/08/18 08:11:24;;;;;;;0.30;0.30;;;;;;;;;;5094139;28;20387;-64
2021/08/18 08:13:50;;;;;;;0.30;0.30;;;;;;;;;;5094238;28;20401;-64
2021/08/18 08:16:16;;;;;;;0.30;0.30;;;;;;;;;;5094529;28;20434;-64
2021/08/18 08:18:42;;;;;;;0.30;0.30;;;;;;;;;;5093971;28;20446;-64
2021/08/18 08:21:08;;;;;;;0.30;0.30;;;;;;;;;;5093284;28;20416;-64
2021/08/18 08:23:34;;;;;;;0.30;0.30;;;;;;;;;;5094286;28;20401;-64
2021/08/18 08:26:00;;;;;;;0.30;0.30;;;;;;;;;;5094263;28;20409;-64
2021/08/18 08:28:26;;;;;;;0.30;0.30;;;;;;;;;;5093435;28;20455;-63
2021/08/18 08:30:52;;;;;;;0.30;0.30;;;;;;;;;;5093743;28;20807;-65
2021/08/18 08:33:18;;;;;;;0.30;0.30;;;;;;;;;;5094042;28;20893;-65
2021/08/18 08:35:44;;;;;;;0.30;0.30;;;;;;;;;;5094157;28;20386;-65
2021/08/18 08:38:11;;;;;;;0.30;0.30;;;;;;;;;;5092846;28;20456;-65
2021/08/18 08:40:42;;;;;;;0.30;0.30;;;;;;;;;;5093871;28;20882;-65
2021/08/18 08:43:08;;;;;;;0.30;0.30;;;;;;;;;;5080704;28;20502;-65
2021/08/18 08:45:34;;;;;;;0.30;0.30;;;;;;;;;;5073729;28;20406;-64
2021/08/18 08:48:00;;;;;;;0.30;0.30;;;;;;;;;;5085221;28;20471;-64
2021/08/18 08:50:27;;;;;;;0.30;0.30;;;;;;;;;;5092916;28;20427;-64
2021/08/18 08:52:53;;;;;;;0.30;0.30;;;;;;;;;;5093624;28;20409;-65
2021/08/18 08:55:19;;;;;;;0.30;0.30;;;;;;;;;;5093355;28;20483;-63
2021/08/18 08:57:46;;;;;;;0.30;0.30;;;;;;;;;;5093370;28;20956;-62
2021/08/18 09:00:13;;;;;;;0.30;0.30;;;;;;;;;;5093143;28;20461;-63
2021/08/18 09:02:39;;;;;;;0.30;0.30;;;;;;;;;;5093417;28;20404;-64
2021/08/18 09:05:05;;;;;;;0.30;0.30;;;;;;;;;;5093068;28;20407;-62
2021/08/18 09:07:31;;;;;;;0.30;0.30;;;;;;;;;;5093321;28;20561;-63
2021/08/18 09:10:01;;;;;;;0.30;0.30;;;;;;;;;;5092957;28;20807;-63
2021/08/18 09:12:28;;;;;;;0.30;0.30;;;;;;;;;;5093175;28;20726;-63
2021/08/18 09:14:54;;;;;;;0.30;0.30;;;;;;;;;;5093207;28;20481;-63
2021/08/18 09:17:30;;;;;;;0.30;0.30;;;;;;;;;;5092296;28;20992;-63
2021/08/18 09:20:14;;;;;;;0.30;0.30;;;;;;;;;;5091777;28;20390;-63
2021/08/18 09:22:50;;;;;;;0.30;0.30;;;;;;;;;;5093139;28;20440;-63
2021/08/18 09:25:43;;;;;;;0.30;0.30;;;;;;;;;;5093322;28;20461;-63
2021/08/18 09:28:09;;;;;;;0.30;0.30;;;;;;;;;;5089381;28;20488;-63
2021/08/18 09:30:36;;;;;;;0.30;0.30;;;;;;;;;;5092494;28;20394;-63
2021/08/18 09:33:10;;;;;;;0.30;0.30;;;;;;;;;;5092885;28;20519;-62
2021/08/18 09:35:36;;;;;;;0.30;0.30;;;;;;;;;;5093081;28;20408;-64
2021/08/18 09:38:02;;;;;;;0.30;0.30;;;;;;;;;;5092099;28;20531;-63
2021/08/18 09:40:29;;;;;;;0.30;0.30;;;;;;;;;;5091830;28;20391;-63
2021/08/18 09:43:07;;;;;;;0.30;0.30;;;;;;;;;;5092760;28;20397;-63
2021/08/18 09:45:34;;;;;;;0.30;0.30;;;;;;;;;;5092796;28;20376;-63
2021/08/18 09:48:05;;;;;;;0.30;0.30;;;;;;;;;;5092455;28;20840;-63
2021/08/18 09:50:45;;;;;;;0.30;0.30;;;;;;;;;;5091837;28;20424;-63
2021/08/18 09:53:19;;;;;;;0.30;0.30;;;;;;;;;;5092563;28;20401;-63
2021/08/18 09:55:55;;;;;;;0.30;0.30;;;;;;;;;;5092505;28;20416;-63
2021/08/18 09:58:31;;;;;;;0.30;0.30;;;;;;;;;;5091860;28;20496;-63
2021/08/18 10:00:58;;;;;;;0.30;0.30;;;;;;;;;;5091904;28;20419;-63
2021/08/18 10:03:25;;;;;;;0.30;0.30;;;;;;;;;;5092252;28;20382;-64
2021/08/18 10:05:53;;;;;;;0.30;0.30;;;;;;;;;;5092423;28;20398;-63
2021/08/18 10:08:19;;;;;;;0.30;0.30;;;;;;;;;;5091683;28;20419;-63
2021/08/18 10:10:46;;;;;;;0.30;0.30;;;;;;;;;;5092045;28;20391;-62
2021/08/18 10:13:12;;;;;;;0.30;0.30;;;;;;;;;;5091743;28;20420;-63
2021/08/18 10:15:38;;;;;;;0.30;0.20;;;;;;;;;;5092125;28;20397;-63
2021/08/18 10:18:06;;;;;;;0.30;0.30;;;;;;;;;;5091962;28;20460;-63
2021/08/18 10:20:32;;;;;;;0.20;0.20;;;;;;;;;;5090882;28;20471;-62
2021/08/18 10:23:00;;;;;;;0.20;0.20;;;;;;;;;;5091612;28;20408;-63
2021/08/18 10:25:34;;;;;;;0.20;0.20;;;;;;;;;;5091739;28;20413;-63
2021/08/18 10:28:00;;;;;;;0.20;0.20;;;;;;;;;;5091210;28;20415;-63
2021/08/18 10:30:26;;;;;;;0.20;0.20;;;;;;;;;;5091751;28;20470;-63
2021/08/18 10:32:53;;;;;;;0.20;0.20;;;;;;;;;;5091789;28;20375;-63
2021/08/18 10:35:42;;;;;;;0.20;0.20;;;;;;;;;;5090953;28;20391;-63
2021/08/18 10:38:29;;;;;;;0.20;0.20;;;;;;;;;;5118276;22;20494;-63
2021/08/18 10:40:55;;;;;;;0.20;0.20;;;;;;;;;;5111480;28;20419;-63
2021/08/18 10:43:40;;;;;;;0.30;0.30;;;;;;;;;;5112121;28;20426;-63
2021/08/18 10:46:06;;;;;;;0.20;0.20;;;;;;;;;;5091219;28;20458;-63
2021/08/18 10:48:52;;;;;;;0.20;0.20;;;;;;;;;;5092793;28;20916;-63
2021/08/18 10:51:36;;;;;;;0.30;0.30;;;;;;;;;;5110187;28;20419;-62
2021/08/18 10:54:22;;;;;;;0.30;0.30;;;;;;;;;;5109454;28;20453;-63
2021/08/18 10:56:56;;;;;;;0.20;0.20;;;;;;;;;;5110923;28;20690;-63
2021/08/18 10:59:49;;;;;;;0.20;0.20;;;;;;;;;;5110607;28;20522;-63
2021/08/18 11:02:38;;;;;;;0.30;0.30;;;;;;;;;;5100609;28;20514;-63
2021/08/18 11:05:14;;;;;;;0.30;0.30;;;;;;;;;;5100663;28;20421;-63
2021/08/18 11:07:59;;;;;;;0.20;0.20;;;;;;;;;;5110265;28;20853;-63
2021/08/18 11:10:25;;;;;;;0.20;0.20;;;;;;;;;;5109889;28;20393;-64
2021/08/18 11:12:55;;;;;;;0.20;0.20;;;;;;;;;;5110649;28;20415;-63
2021/08/18 11:15:21;;;;;;;0.20;0.20;;;;;;;;;;5091407;28;20955;-63
2021/08/18 11:17:48;;;;;;;0.20;0.20;;;;;;;;;;5109841;28;20437;-63
2021/08/18 11:20:18;;;;;;;0.30;0.30;;;;;;;;;;5110524;28;20424;-63
2021/08/18 11:22:45;;;;;;;0.20;0.20;;;;;;;;;;5110166;28;21004;-63
2021/08/18 11:25:13;;;;;;;0.30;0.30;;;;;;;;;;5111269;28;20451;-63
2021/08/18 11:27:39;;;;;;;0.20;0.20;;;;;;;;;;5110481;28;20461;-63
2021/08/18 11:30:06;;;;;;;0.30;0.30;;;;;;;;;;5109816;28;20406;-63
2021/08/18 11:32:32;;;;;;;0.30;0.30;;;;;;;;;;5109894;28;20892;-63
2021/08/18 11:34:58;;;;;;;0.30;0.30;;;;;;;;;;5110458;28;20466;-63
2021/08/18 11:37:26;;;;;;;0.30;0.30;;;;;;;;;;5111290;28;20463;-63
2021/08/18 11:39:56;;;;;;;0.30;0.30;;;;;;;;;;5108507;28;20426;-63
2021/08/18 11:42:23;;;;;;;0.30;0.30;;;;;;;;;;5109605;28;20472;-63
2021/08/18 11:45:03;;;;;;;0.30;0.30;;;;;;;;;;5113588;28;20765;-63
2021/08/18 11:47:30;;;;;;;0.30;0.30;;;;;;;;;;5114437;28;20987;-63
2021/08/18 11:49:58;;;;;;;0.20;0.20;;;;;;;;;;5113247;28;20451;-64
2021/08/18 11:52:24;;;;;;;0.20;0.20;;;;;;;;;;5114731;28;20411;-64
2021/08/18 11:54:57;;;;;;;0.20;0.20;;;;;;;;;;5114809;28;20429;-63
2021/08/18 11:57:24;;;;;;;0.20;0.20;;;;;;;;;;5115150;28;20806;-63
2021/08/18 11:59:53;;;;;;;0.30;0.30;;;;;;;;;;5114629;28;20601;-63
2021/08/18 12:02:26;;;;;;;0.20;0.20;;;;;;;;;;5114936;28;20495;-63
2021/08/18 12:04:55;;;;;;;0.20;0.20;;;;;;;;;;5114648;28;20414;-63
2021/08/18 12:07:21;;;;;;;0.30;0.30;;;;;;;;;;5114857;28;20427;-63
2021/08/18 12:10:07;;;;;;;0.20;0.20;;;;;;;;;;5114160;28;20896;-63
2021/08/18 12:12:33;;;;;;;0.20;0.20;;;;;;;;;;5114958;28;20937;-63
2021/08/18 12:15:08;;;;;;;0.30;0.30;;;;;;;;;;5114336;28;20914;-63
2021/08/18 12:17:38;;;;;;;0.20;0.20;;;;;;;;;;5114412;28;20436;-63
2021/08/18 12:20:04;;;;;;;0.30;0.30;;;;;;;;;;5114223;28;20447;-63
2021/08/18 12:22:31;;;;;;;0.20;0.20;;;;;;;;;;5115187;28;20427;-65
2021/08/18 12:25:08;;;;;;;0.20;0.20;;;;;;;;;;5114586;28;20447;-63
2021/08/18 12:27:34;;;;;;;0.27;0.27;;;;;;;;;;5113746;28;20419;-63
2021/08/18 12:30:01;;;;;;;0.30;0.30;;;;;;;;;;5112615;28;20394;-63
2021/08/18 12:32:27;;;;;;;0.20;0.20;;;;;;;;;;5113354;28;20394;-65
2021/08/18 12:34:57;;;;;;;0.20;0.20;;;;;;;;;;5114059;28;20774;-65
2021/08/18 12:37:25;;;;;;;0.30;0.30;;;;;;;;;;5112741;28;20477;-65
2021/08/18 12:40:17;;;;;;;0.20;0.20;;;;;;;;;;5113773;28;20782;-65
2021/08/18 12:42:45;;;;;;;0.20;0.20;;;;;;;;;;5108752;28;20425;-65
2021/08/18 12:45:18;;;;;;;0.20;0.20;;;;;;;;;;5114197;28;20378;-65
2021/08/18 12:47:45;;;;;;;0.20;0.20;;;;;;;;;;5113646;28;20500;-65
2021/08/18 12:50:13;;;;;;;0.30;0.30;;;;;;;;;;5113357;28;20426;-65
2021/08/18 12:52:39;;;;;;;0.20;0.20;;;;;;;;;;5107009;28;20426;-65
2021/08/18 12:55:06;;;;;;;0.20;0.20;;;;;;;;;;5103493;28;20411;-65
2021/08/18 12:57:32;;;;;;;0.20;0.20;;;;;;;;;;5107995;28;20435;-65
2021/08/18 12:59:58;;;;;;;0.30;0.30;;;;;;;;;;5101283;28;20439;-65
2021/08/18 13:02:24;;;;;;;0.30;0.30;;;;;;;;;;5104373;28;20416;-65
2021/08/18 13:04:50;;;;;;;0.20;0.20;;;;;;;;;;5102638;28;20775;-65
2021/08/18 13:07:16;;;;;;;0.20;0.20;;;;;;;;;;5086426;28;20428;-65
2021/08/18 13:09:42;;;;;;;0.20;0.20;;;;;;;;;;5102526;28;20444;-65
2021/08/18 13:12:08;;;;;;;0.20;0.20;;;;;;;;;;5107254;28;20423;-64
2021/08/18 13:14:34;;;;;;;0.20;0.20;;;;;;;;;;5102809;28;20964;-65
2021/08/18 13:17:01;;;;;;;0.30;0.30;;;;;;;;;;5104642;28;20466;-65
2021/08/18 13:19:29;;;;;;;0.30;0.30;;;;;;;;;;5100744;28;20939;-65
2021/08/18 13:21:55;;;;;;;0.30;0.30;;;;;;;;;;5102789;28;20442;-65
2021/08/18 13:24:21;;;;;;;0.30;0.30;;;;;;;;;;5107289;28;20506;-65
2021/08/18 13:26:48;;;;;;;0.20;0.20;;;;;;;;;;5103126;28;20438;-65
2021/08/18 13:29:14;;;;;;;0.30;0.30;;;;;;;;;;5105136;28;20444;-65
2021/08/18 13:31:40;;;;;;;0.30;0.30;;;;;;;;;;5105386;28;20913;-65
2021/08/18 13:34:07;;;;;;;0.20;0.20;;;;;;;;;;5103797;28;20404;-65
2021/08/18 13:36:34;;;;;;;0.20;0.20;;;;;;;;;;5102334;28;21366;-65
2021/08/18 13:39:01;;;;;;;0.20;0.20;;;;;;;;;;5102792;28;20455;-65
2021/08/18 13:41:27;;;;;;;0.20;0.20;;;;;;;;;;5101705;28;20415;-65
2021/08/18 13:43:53;;;;;;;0.20;0.20;;;;;;;;;;5100287;28;20436;-65
2021/08/18 13:46:19;;;;;;;0.30;0.30;;;;;;;;;;5105323;28;20398;-65
2021/08/18 13:48:45;;;;;;;0.20;0.20;;;;;;;;;;5100968;28;20860;-64
2021/08/18 13:51:11;;;;;;;0.30;0.30;;;;;;;;;;5105270;28;20433;-65
2021/08/18 13:53:37;;;;;;;0.20;0.20;;;;;;;;;;5104066;28;20925;-65
2021/08/18 13:56:04;;;;;;;0.27;0.27;;;;;;;;;;5112006;28;20477;-66
2021/08/18 13:58:30;;;;;;;0.20;0.20;;;;;;;;;;5094307;28;20438;-66
2021/08/18 14:00:56;;;;;;;0.30;0.30;;;;;;;;;;5112343;28;20390;-65
2021/08/18 14:03:23;;;;;;;0.20;0.20;;;;;;;;;;5094591;28;20919;-65
2021/08/18 14:05:49;;;;;;;0.30;0.30;;;;;;;;;;5111778;28;20809;-65
2021/08/18 14:08:15;;;;;;;0.30;0.30;;;;;;;;;;5111844;28;20470;-65
2021/08/18 14:10:42;;;;;;;0.30;0.30;;;;;;;;;;5110098;28;20408;-65
2021/08/18 14:13:08;;;;;;;0.20;0.20;;;;;;;;;;5101538;28;20417;-66
2021/08/18 14:15:35;;;;;;;0.20;0.20;;;;;;;;;;5102346;28;20399;-65
2021/08/18 14:18:01;;;;;;;0.30;0.30;;;;;;;;;;5102755;28;20521;-65
2021/08/18 14:20:28;;;;;;;0.30;0.30;;;;;;;;;;5101599;28;20514;-65
2021/08/18 14:22:54;;;;;;;0.30;0.30;;;;;;;;;;5108630;28;20423;-65
2021/08/18 14:25:20;;;;;;;0.20;0.20;;;;;;;;;;5084602;28;20412;-65
2021/08/18 14:27:46;;;;;;;0.20;0.20;;;;;;;;;;5103344;28;20448;-65
2021/08/18 14:30:13;;;;;;;0.20;0.20;;;;;;;;;;5107702;28;20402;-65
2021/08/18 14:32:41;;;;;;;0.30;0.30;;;;;;;;;;5101029;28;20389;-65
2021/08/18 14:35:07;;;;;;;0.20;0.20;;;;;;;;;;5104932;28;20427;-65
2021/08/18 14:37:33;;;;;;;0.20;0.20;;;;;;;;;;5100847;28;20492;-65
2021/08/18 14:39:59;;;;;;;0.20;0.20;;;;;;;;;;5102018;28;20450;-65
2021/08/18 14:42:25;;;;;;;0.20;0.20;;;;;;;;;;5103012;28;20415;-65
2021/08/18 14:44:51;;;;;;;0.20;0.20;;;;;;;;;;5085926;28;20447;-65
2021/08/18 14:47:17;;;;;;;0.20;0.20;;;;;;;;;;5111327;28;20766;-65